Anderson, IN

8:45 PM EST on February 01, 2015 (GMT -0500)
Rydman and Fox, Inc. | Change Station
CLOSE
Current Station
Personal Weather Station
Location: Anderson, IN
Elevation: 875 ft
Nearby Weather Stations
Active Advisory: Winter Weather Advisory Active Notice: Local Storm Report

Elev 875 ft 40.19 °N, 85.75 °W | Updated 10 seconds ago

Overcast
Overcast
33.3 °F
Feels Like 33 °F
N
2.0
Wind Variable Wind from East
Gusts 3.0 mph

Today
High -- | Low -- °F
--% Chance of Precip.
Yesterday
High -- | Low -- °F
Precip. -- in
7:52 AM 6:01 PM
Waxing Gibbous, 97% visible
Pressure 29.54 in
Visibility 2.5 miles
Clouds Overcast 200 ft
Windchill 33 °F
Dew Point 32 °F
Humidity 97%
Rainfall 0.25 in
Snow Depth Not available.
UV 0 out of 12
Pollen .10 out of 12
Air Quality Not available.
Flu Activity Not available.
SPECI KMIE 020140Z 34004KT 2 1/2SM BR OVC002 01/00 A2954 RMK AO2 UPE0057 P0000 T00060000

More Conditions Fewer Conditions

Pressure 29.54 in
Visibility 2.5 miles
Clouds Overcast 200 ft
Windchill 33 °F
Dew Point 32 °F
Humidity 97%
Rainfall 0.25 in
Snow Depth Not available.
UV 0 out of 12
Pollen .10 out of 12
Air Quality Not available.
Flu Activity Not available.
SPECI KMIE 020140Z 34004KT 2 1/2SM BR OVC002 01/00 A2954 RMK AO2 UPE0057 P0000 T00060000

More Conditions Fewer Conditions

10-Day Weather Forecast

Almanac

Astronomy

Feb. 01, 2015 Rise Set
Actual Time
Civil Twilight
Nautical Twilight
Astronomical Twilight
Moon
Length of Visible Light
Length of Day
Tomorrow will be .
, % of the Moon is Illuminated

Today's Extremes

State Highs State Lows

Community

WunderPhotos

Upload Photos

1,792,652 photos uploaded!

WunderBlogs® & News

Nearby

Air Quality

  Air Quality AQ Index Pollutant
Not available.

Snow Depth

Station Depth Elevation

Earthquake Activity

City Distance Mag. Time & Date
Minimum magnitude displayed is 2.5.

Coastal Water Temperatures

Place Temperature

Nearby Weather Stations